createdAt,value
2022-12-09T00:00:41.494Z,15.45
2022-12-09T00:03:08.136Z,15.10
2022-12-09T00:05:35.094Z,14.02
2022-12-09T00:08:01.746Z,13.40
2022-12-09T00:10:28.554Z,11.07
2022-12-09T00:12:56.331Z,11.77
2022-12-09T00:15:23.158Z,14.82
2022-12-09T00:17:49.945Z,16.38
2022-12-09T00:20:16.556Z,17.35
2022-12-09T00:22:43.080Z,14.18
2022-12-09T00:25:09.783Z,12.77
2022-12-09T00:27:36.316Z,13.77
2022-12-09T00:30:02.993Z,10.93
2022-12-09T00:32:30.099Z,13.43
2022-12-09T00:34:56.851Z,15.75
2022-12-09T00:37:23.490Z,13.52
2022-12-09T00:39:49.941Z,10.90
2022-12-09T00:42:16.539Z,15.15
2022-12-09T00:44:43.109Z,14.27
2022-12-09T00:47:09.679Z,15.25
2022-12-09T00:49:36.262Z,13.50
2022-12-09T00:52:02.857Z,14.80
2022-12-09T00:54:29.584Z,15.10
2022-12-09T00:56:57.149Z,16.98
2022-12-09T00:59:23.663Z,14.00
2022-12-09T01:01:50.237Z,16.08
2022-12-09T01:04:17.418Z,16.58
2022-12-09T01:06:44.129Z,16.02
2022-12-09T01:09:10.761Z,13.25
2022-12-09T01:11:37.342Z,18.75
2022-12-09T01:14:04.148Z,15.05
2022-12-09T01:16:33.653Z,15.60
2022-12-09T01:19:03.676Z,15.02
2022-12-09T01:21:30.683Z,16.25
2022-12-09T01:23:57.493Z,16.70
2022-12-09T01:26:24.175Z,17.38
2022-12-09T01:28:52.952Z,15.10
2022-12-09T01:31:23.160Z,17.08
2022-12-09T01:33:50.003Z,14.43
2022-12-09T01:36:19.702Z,14.57
2022-12-09T01:38:47.264Z,17.40
2022-12-09T01:41:15.027Z,18.33
2022-12-09T01:43:42.088Z,17.75
2022-12-09T01:46:08.939Z,14.77
2022-12-09T01:48:40.379Z,16.20
2022-12-09T01:51:14.380Z,16.10
2022-12-09T01:53:44.706Z,16.85
2022-12-09T01:56:17.140Z,18.65
2022-12-09T01:58:45.358Z,17.38
2022-12-09T02:01:12.167Z,15.95
2022-12-09T02:03:38.803Z,16.83
2022-12-09T02:06:05.687Z,16.08
2022-12-09T02:08:32.264Z,19.33
2022-12-09T02:11:17.365Z,16.48
2022-12-09T02:13:52.671Z,19.13
2022-12-09T02:16:23.021Z,16.83
2022-12-09T02:18:55.689Z,15.60
2022-12-09T02:21:32.338Z,16.50
2022-12-09T02:24:14.268Z,15.10
2022-12-09T02:26:42.566Z,17.27
2022-12-09T02:29:21.147Z,17.80
2022-12-09T02:31:50.863Z,16.25
2022-12-09T02:34:19.720Z,13.75
2022-12-09T02:36:59.629Z,15.70
2022-12-09T02:39:38.278Z,17.10
2022-12-09T02:42:08.366Z,14.93
2022-12-09T02:44:38.283Z,15.70
2022-12-09T02:47:08.752Z,17.38
2022-12-09T02:49:37.964Z,15.52
2022-12-09T02:52:05.747Z,16.10
2022-12-09T02:54:34.373Z,16.10
2022-12-09T02:57:09.175Z,15.23
2022-12-09T03:02:12.481Z,14.32
2022-12-09T03:04:42.547Z,14.13
2022-12-09T03:07:29.682Z,17.30
2022-12-09T03:12:39.059Z,15.90
2022-12-09T03:15:07.948Z,15.38
2022-12-09T03:17:37.007Z,16.40
2022-12-09T03:20:12.088Z,15.52
2022-12-09T03:22:43.324Z,14.23
2022-12-09T03:25:12.456Z,16.17
2022-12-09T03:27:47.160Z,15.90
2022-12-09T03:30:15.227Z,15.20
2022-12-09T03:32:44.481Z,15.15
2022-12-09T03:35:20.075Z,18.10
2022-12-09T03:37:48.518Z,15.52
2022-12-09T03:40:18.072Z,14.23
2022-12-09T03:42:53.431Z,14.43
2022-12-09T03:45:20.876Z,14.70
2022-12-09T03:47:47.634Z,14.43
2022-12-09T03:50:15.001Z,12.73
2022-12-09T03:52:49.607Z,16.02
2022-12-09T03:55:30.609Z,15.23
2022-12-09T03:58:00.139Z,15.93
2022-12-09T04:00:27.577Z,15.70
2022-12-09T04:02:54.459Z,15.73
2022-12-09T04:05:21.051Z,13.77
2022-12-09T04:07:47.774Z,15.73
2022-12-09T04:10:14.415Z,14.75
2022-12-09T04:12:41.002Z,14.45
2022-12-09T04:15:08.323Z,14.43
2022-12-09T04:17:35.186Z,13.93
2022-12-09T04:20:01.789Z,15.05
2022-12-09T04:22:29.557Z,16.02
2022-12-09T04:24:56.196Z,13.48
2022-12-09T04:27:22.761Z,14.57
2022-12-09T04:29:49.362Z,13.30
2022-12-09T04:32:15.911Z,12.75
2022-12-09T04:34:42.459Z,15.93
2022-12-09T04:37:09.294Z,11.27
2022-12-09T04:39:36.113Z,15.55
2022-12-09T04:42:02.763Z,12.55
2022-12-09T04:44:29.236Z,12.68
2022-12-09T04:46:55.815Z,11.48
2022-12-09T04:49:22.786Z,10.85
2022-12-09T04:51:49.288Z,13.85
2022-12-09T04:54:16.027Z,11.18
2022-12-09T04:56:44.496Z,11.38
2022-12-09T04:59:11.100Z,12.77
2022-12-09T05:01:37.899Z,11.88
2022-12-09T05:04:05.011Z,14.30
2022-12-09T05:06:32.718Z,14.73
2022-12-09T05:08:59.570Z,13.15
2022-12-09T05:11:26.369Z,13.98
2022-12-09T05:13:56.659Z,14.18
2022-12-09T05:16:23.268Z,11.18
2022-12-09T05:18:53.266Z,16.55
2022-12-09T05:21:21.718Z,14.50
2022-12-09T05:23:49.581Z,13.55
2022-12-09T05:26:19.469Z,11.40
2022-12-09T05:28:46.814Z,10.95
2022-12-09T05:31:19.893Z,11.95
2022-12-09T05:33:47.867Z,13.40
2022-12-09T05:36:16.945Z,14.20
2022-12-09T05:38:44.463Z,14.57
2022-12-09T05:41:11.287Z,13.57
2022-12-09T05:43:37.900Z,16.27
2022-12-09T05:46:06.811Z,16.20
2022-12-09T05:48:34.565Z,13.85
2022-12-09T05:51:12.375Z,16.15
2022-12-09T05:53:39.132Z,15.60
2022-12-09T05:56:05.941Z,18.25
2022-12-09T05:58:34.234Z,16.20
2022-12-09T06:01:06.330Z,14.20
2022-12-09T06:03:33.151Z,16.65
2022-12-09T06:06:05.353Z,18.70
2022-12-09T06:08:32.096Z,18.65
2022-12-09T06:10:59.092Z,14.35
2022-12-09T06:13:27.354Z,16.38
2022-12-09T06:15:54.140Z,18.17
2022-12-09T06:18:21.384Z,16.88
2022-12-09T06:20:48.065Z,16.35
2022-12-09T06:23:14.897Z,17.27
2022-12-09T06:25:45.197Z,16.10
2022-12-09T06:28:12.438Z,16.50
2022-12-09T06:30:39.439Z,16.20
2022-12-09T06:33:22.904Z,17.15
2022-12-09T06:35:52.794Z,17.55
2022-12-09T06:38:22.100Z,16.17
2022-12-09T06:40:48.616Z,20.05
2022-12-09T06:43:15.584Z,17.80
2022-12-09T06:45:42.287Z,21.20
2022-12-09T06:48:09.286Z,17.67
2022-12-09T06:50:37.052Z,19.45
2022-12-09T06:53:04.373Z,18.95
2022-12-09T06:55:31.110Z,18.40
2022-12-09T06:58:01.157Z,18.45
2022-12-09T07:00:28.319Z,18.67
2022-12-09T07:02:55.543Z,17.38
2022-12-09T07:05:26.046Z,16.83
2022-12-09T07:07:53.294Z,16.25
2022-12-09T07:10:20.998Z,17.20
2022-12-09T07:12:48.260Z,14.75
2022-12-09T07:15:15.250Z,18.90
2022-12-09T07:17:42.194Z,21.48
2022-12-09T07:20:09.670Z,24.80
2022-12-09T07:22:37.159Z,30.50
2022-12-09T07:25:04.915Z,52.75
2022-12-09T07:27:32.721Z,48.63
2022-12-09T07:29:59.725Z,32.67
2022-12-09T07:32:26.611Z,25.58
2022-12-09T07:34:53.301Z,25.13
2022-12-09T07:37:20.078Z,22.75
2022-12-09T07:39:46.682Z,21.77
2022-12-09T07:42:13.228Z,22.58
2022-12-09T07:44:39.966Z,19.67
2022-12-09T07:47:06.991Z,18.48
2022-12-09T07:49:34.129Z,20.25
2022-12-09T07:52:00.828Z,20.33
2022-12-09T07:54:27.716Z,33.13
2022-12-09T07:56:54.719Z,29.98
2022-12-09T07:59:21.215Z,22.77
2022-12-09T08:01:48.056Z,24.77
2022-12-09T08:04:15.374Z,22.90
2022-12-09T08:06:42.610Z,19.95
2022-12-09T08:09:12.351Z,24.13
2022-12-09T08:11:39.455Z,24.90
2022-12-09T08:14:12.322Z,22.45
2022-12-09T08:16:41.895Z,23.25
2022-12-09T08:19:09.364Z,19.63
2022-12-09T08:21:36.807Z,18.23
2022-12-09T08:24:05.983Z,22.13
2022-12-09T08:26:34.241Z,26.80
2022-12-09T08:29:01.332Z,17.65
2022-12-09T08:31:28.628Z,24.35
2022-12-09T08:33:56.146Z,21.25
2022-12-09T08:36:25.560Z,21.30
2022-12-09T08:38:52.994Z,21.05
2022-12-09T08:41:35.892Z,23.42
2022-12-09T08:44:06.293Z,20.35
2022-12-09T08:46:34.061Z,23.02
2022-12-09T08:49:03.771Z,23.67
2022-12-09T08:51:31.808Z,24.00
2022-12-09T08:53:59.520Z,23.73
2022-12-09T08:56:26.288Z,26.98
2022-12-09T08:58:54.109Z,26.42
2022-12-09T09:01:32.263Z,26.00
2022-12-09T09:04:04.221Z,24.33
2022-12-09T09:06:31.230Z,24.65
2022-12-09T09:08:58.448Z,24.73
2022-12-09T09:11:26.126Z,28.40
2022-12-09T09:13:53.148Z,26.17
2022-12-09T09:16:22.628Z,26.70
2022-12-09T09:18:50.918Z,30.83
2022-12-09T09:21:20.273Z,26.58
2022-12-09T09:23:47.554Z,30.30
2022-12-09T09:26:17.320Z,27.25
2022-12-09T09:28:44.560Z,30.73
2022-12-09T09:31:15.979Z,34.80
2022-12-09T09:33:43.580Z,31.20
2022-12-09T09:36:14.986Z,31.75
2022-12-09T09:38:42.054Z,29.67
2022-12-09T09:41:40.923Z,42.88
2022-12-09T09:44:23.264Z,43.45
2022-12-09T09:46:51.821Z,39.40
2022-12-09T09:49:28.813Z,38.97
2022-12-09T09:51:55.789Z,42.58
2022-12-09T09:54:22.811Z,39.28
2022-12-09T09:57:14.851Z,40.22
2022-12-09T10:00:09.792Z,42.17
2022-12-09T10:02:50.282Z,34.90
2022-12-09T10:05:30.435Z,31.77
2022-12-09T10:08:21.759Z,28.80
2022-12-09T10:11:25.703Z,36.85
2022-12-09T10:14:03.820Z,34.25
2022-12-09T10:16:33.824Z,24.35
2022-12-09T10:19:09.307Z,28.42
2022-12-09T10:21:41.466Z,34.83
2022-12-09T10:24:39.159Z,33.95
2022-12-09T10:27:27.773Z,30.13
2022-12-09T10:29:59.185Z,40.28
2022-12-09T10:32:31.635Z,30.48
2022-12-09T10:34:59.321Z,31.65
2022-12-09T10:37:36.088Z,40.22
2022-12-09T10:40:17.855Z,35.65
2022-12-09T10:43:09.426Z,31.35
2022-12-09T10:46:16.644Z,31.98
2022-12-09T10:48:37.689Z,33.03
2022-12-09T10:51:11.376Z,30.17
2022-12-09T10:53:45.457Z,26.40
2022-12-09T10:56:20.979Z,34.50
2022-12-09T10:58:48.004Z,40.40
2022-12-09T11:01:18.564Z,41.95
2022-12-09T11:03:51.864Z,35.33
2022-12-09T11:06:33.217Z,33.80
2022-12-09T11:09:02.471Z,32.78
2022-12-09T11:11:48.060Z,35.45
2022-12-09T11:14:32.690Z,43.78
2022-12-09T11:17:22.521Z,34.83
2022-12-09T11:19:54.250Z,33.63
2022-12-09T11:22:42.644Z,31.02
2022-12-09T11:25:13.072Z,38.45
2022-12-09T11:27:53.008Z,39.83
2022-12-09T11:30:26.797Z,33.97
2022-12-09T11:33:00.160Z,38.33
2022-12-09T11:35:33.250Z,33.55
2022-12-09T11:38:13.221Z,32.47
2022-12-09T11:40:39.863Z,41.63
2022-12-09T11:43:06.844Z,47.33
2022-12-09T11:45:45.728Z,41.92
2022-12-09T11:48:33.684Z,37.15
2022-12-09T11:51:02.744Z,35.35
2022-12-09T11:53:31.823Z,36.88
2022-12-09T11:56:04.127Z,36.17
2022-12-09T11:58:40.846Z,41.08
2022-12-09T12:01:14.276Z,40.75
2022-12-09T12:04:01.569Z,41.38
2022-12-09T12:06:38.599Z,45.55
2022-12-09T12:09:35.954Z,41.80
2022-12-09T12:12:28.306Z,53.17
2022-12-09T12:14:58.902Z,46.83
2022-12-09T12:17:34.717Z,48.22
2022-12-09T12:20:03.354Z,54.42
2022-12-09T12:25:38.360Z,44.88
2022-12-09T12:28:21.881Z,51.67
2022-12-09T12:31:01.126Z,47.38
2022-12-09T12:34:15.946Z,52.38
2022-12-09T12:36:43.981Z,50.83
2022-12-09T12:39:25.720Z,50.42
2022-12-09T12:42:30.763Z,55.47
2022-12-09T12:45:34.531Z,53.47
2022-12-09T12:48:07.719Z,53.90
2022-12-09T12:50:52.164Z,57.55
2022-12-09T12:53:43.992Z,46.00
2022-12-09T12:56:27.055Z,44.58
2022-12-09T12:59:16.498Z,55.33
2022-12-09T13:02:02.384Z,58.80
2022-12-09T13:04:48.708Z,50.03
2022-12-09T13:07:42.664Z,53.63
2022-12-09T13:10:27.467Z,49.10
2022-12-09T13:13:01.724Z,46.80
2022-12-09T13:15:43.288Z,56.33
2022-12-09T13:18:29.316Z,35.25
2022-12-09T13:20:58.274Z,47.17
2022-12-09T13:23:58.844Z,41.33
2022-12-09T13:26:50.875Z,41.45
2022-12-09T13:29:37.064Z,41.83
2022-12-09T13:32:25.297Z,52.28
2022-12-09T13:34:56.651Z,41.80
2022-12-09T13:37:41.906Z,45.58
2022-12-09T13:40:20.604Z,36.67
2022-12-09T13:42:57.924Z,45.97
2022-12-09T13:45:28.350Z,44.35
2022-12-09T13:47:56.774Z,38.78
2022-12-09T13:50:42.262Z,48.33
2022-12-09T13:53:20.957Z,44.90
2022-12-09T13:56:00.217Z,40.40
2022-12-09T13:59:02.372Z,39.22
2022-12-09T14:01:51.111Z,38.20
2022-12-09T14:04:33.729Z,40.83
2022-12-09T14:07:10.030Z,36.83
2022-12-09T14:09:50.758Z,37.97
2022-12-09T14:12:26.434Z,40.80
2022-12-09T14:14:56.848Z,42.75
2022-12-09T14:17:26.909Z,46.78
2022-12-09T14:20:01.054Z,44.65
2022-12-09T14:22:30.521Z,40.47
2022-12-09T14:24:58.748Z,48.70
2022-12-09T14:27:27.680Z,39.58
2022-12-09T14:30:01.773Z,45.97
2022-12-09T14:32:33.856Z,37.33
2022-12-09T14:35:06.799Z,44.30
2022-12-09T14:37:42.719Z,38.65
2022-12-09T14:40:15.432Z,41.97
2022-12-09T14:43:34.127Z,42.10
2022-12-09T14:46:03.444Z,41.10
2022-12-09T14:48:34.598Z,35.95
2022-12-09T14:51:15.914Z,39.55
2022-12-09T14:53:42.937Z,39.75
2022-12-09T14:56:16.524Z,44.35
2022-12-09T14:58:48.164Z,41.05
2022-12-09T15:01:14.777Z,35.60
2022-12-09T15:03:45.593Z,36.75
2022-12-09T15:06:17.837Z,42.75
2022-12-09T15:08:45.155Z,37.20
2022-12-09T15:11:21.951Z,44.45
2022-12-09T15:13:51.642Z,49.80
2022-12-09T15:16:21.741Z,44.15
2022-12-09T15:18:50.121Z,38.30
2022-12-09T15:21:28.796Z,41.10
2022-12-09T15:23:56.150Z,46.10
2022-12-09T15:26:33.450Z,41.80
2022-12-09T15:29:01.452Z,37.58
2022-12-09T15:31:30.611Z,38.97
2022-12-09T15:33:59.539Z,45.05
2022-12-09T15:36:45.763Z,36.17
2022-12-09T15:39:28.177Z,38.33
2022-12-09T15:42:27.312Z,40.90
2022-12-09T15:44:56.615Z,34.53
2022-12-09T15:47:41.836Z,43.28
2022-12-09T15:50:22.267Z,39.80
2022-12-09T15:52:54.197Z,36.63
2022-12-09T15:55:26.500Z,36.70
2022-12-09T15:57:55.834Z,33.80
2022-12-09T16:00:22.652Z,40.85
2022-12-09T16:02:50.511Z,40.60
2022-12-09T16:05:25.951Z,34.30
2022-12-09T16:07:56.128Z,43.15
2022-12-09T16:10:26.961Z,36.38
2022-12-09T16:13:07.780Z,41.97
2022-12-09T16:15:55.917Z,41.22
2022-12-09T16:18:30.162Z,39.35
2022-12-09T16:21:15.192Z,37.55
2022-12-09T16:23:44.857Z,39.10
2022-12-09T16:26:18.922Z,39.35
2022-12-09T16:28:54.778Z,33.13
2022-12-09T16:31:22.643Z,37.58
2022-12-09T16:33:50.726Z,41.63
2022-12-09T16:36:21.586Z,38.28
2022-12-09T16:39:06.975Z,39.35
2022-12-09T16:41:51.992Z,43.75
2022-12-09T16:44:34.414Z,45.47
2022-12-09T16:47:24.250Z,39.28
2022-12-09T16:49:50.949Z,38.60
2022-12-09T16:52:25.300Z,38.45
2022-12-09T16:54:54.617Z,37.42
2022-12-09T16:57:23.436Z,34.28
2022-12-09T16:59:50.929Z,39.17
2022-12-09T17:02:39.280Z,32.17
2022-12-09T17:05:06.872Z,31.65
2022-12-09T17:07:33.758Z,31.88
2022-12-09T17:10:00.415Z,38.30
2022-12-09T17:12:27.141Z,37.92
2022-12-09T17:14:53.928Z,32.90
2022-12-09T17:17:23.516Z,36.88
2022-12-09T17:19:50.809Z,39.28
2022-12-09T17:22:17.885Z,37.22
2022-12-09T17:24:44.509Z,41.55
2022-12-09T17:27:11.025Z,38.65
2022-12-09T17:29:37.557Z,38.28
2022-12-09T17:32:04.268Z,34.70
2022-12-09T17:34:30.874Z,38.70
2022-12-09T17:36:58.367Z,39.83
2022-12-09T17:39:25.032Z,46.88
2022-12-09T17:41:51.740Z,44.30
2022-12-09T17:44:21.115Z,34.67
2022-12-09T17:46:49.127Z,31.27
2022-12-09T17:49:15.853Z,43.70
2022-12-09T17:51:42.741Z,44.38
2022-12-09T17:54:09.451Z,51.70
2022-12-09T17:56:36.252Z,47.35
2022-12-09T17:59:08.507Z,42.40
2022-12-09T18:01:36.853Z,47.67
2022-12-09T18:04:11.579Z,46.08
2022-12-09T18:06:40.869Z,46.25
2022-12-09T18:09:09.322Z,46.40
2022-12-09T18:11:36.576Z,45.50
2022-12-09T18:14:03.871Z,40.38
2022-12-09T18:16:30.892Z,51.00
2022-12-09T18:19:02.340Z,46.72
2022-12-09T18:21:28.959Z,48.13
2022-12-09T18:23:56.244Z,45.38
2022-12-09T18:26:27.179Z,50.70
2022-12-09T18:28:58.550Z,43.55
2022-12-09T18:31:25.380Z,47.20
2022-12-09T18:33:52.540Z,49.28
2022-12-09T18:36:22.586Z,49.50
2022-12-09T18:38:49.716Z,46.70
2022-12-09T18:41:21.343Z,43.03
2022-12-09T18:43:50.799Z,43.45
2022-12-09T18:46:26.909Z,46.85
2022-12-09T18:49:02.682Z,51.28
2022-12-09T18:51:30.057Z,41.45
2022-12-09T18:54:00.852Z,51.47
2022-12-09T18:56:28.277Z,42.08
2022-12-09T18:59:06.611Z,47.85
2022-12-09T19:01:38.934Z,56.88
2022-12-09T19:04:07.049Z,49.85
2022-12-09T19:06:36.875Z,45.15
2022-12-09T19:09:09.049Z,54.22
2022-12-09T19:11:37.468Z,57.20
2022-12-09T19:14:05.400Z,62.20
2022-12-09T19:16:32.423Z,50.08
2022-12-09T19:19:03.823Z,50.65
2022-12-09T19:21:34.155Z,53.13
2022-12-09T19:24:00.710Z,49.35
2022-12-09T19:26:32.083Z,50.50
2022-12-09T19:29:00.857Z,57.50
2022-12-09T19:31:30.588Z,47.97
2022-12-09T19:34:02.597Z,47.80
2022-12-09T19:36:30.677Z,48.40
2022-12-09T19:38:58.100Z,54.42
2022-12-09T19:41:24.676Z,45.58
2022-12-09T19:43:59.009Z,44.10
2022-12-09T19:46:29.070Z,44.85
2022-12-09T19:48:56.608Z,47.15
2022-12-09T19:51:24.152Z,45.55
2022-12-09T19:53:53.697Z,47.75
2022-12-09T19:56:20.634Z,44.65
2022-12-09T19:58:47.987Z,41.22
2022-12-09T20:01:22.872Z,42.30
2022-12-09T20:04:08.867Z,42.42
2022-12-09T20:09:29.795Z,40.67
2022-12-09T20:11:56.553Z,37.15
2022-12-09T20:14:23.451Z,40.58
2022-12-09T20:16:50.003Z,47.95
2022-12-09T20:19:18.083Z,41.65
2022-12-09T20:21:44.564Z,47.15
2022-12-09T20:24:11.035Z,41.95
2022-12-09T20:26:38.361Z,50.75
2022-12-09T20:29:08.172Z,44.70
2022-12-09T20:31:36.380Z,47.67
2022-12-09T20:34:10.739Z,48.35
2022-12-09T20:36:40.557Z,39.67
2022-12-09T20:39:12.585Z,38.38
2022-12-09T20:41:40.010Z,42.42
2022-12-09T20:44:06.611Z,51.60
2022-12-09T20:46:33.719Z,51.40
2022-12-09T20:49:00.841Z,51.83
2022-12-09T20:51:34.064Z,52.47
2022-12-09T20:54:01.215Z,48.33
2022-12-09T20:56:31.710Z,38.75
2022-12-09T20:58:58.421Z,47.30
2022-12-09T21:01:27.720Z,54.08
2022-12-09T21:03:55.388Z,48.90
2022-12-09T21:06:25.556Z,36.08
2022-12-09T21:08:53.917Z,51.67
2022-12-09T21:11:22.829Z,47.70
2022-12-09T21:13:52.784Z,37.60
2022-12-09T21:16:25.480Z,38.72
2022-12-09T21:18:55.409Z,56.25
2022-12-09T21:21:25.945Z,60.00
2022-12-09T21:23:54.574Z,56.00
2022-12-09T21:28:49.321Z,43.72
2022-12-09T21:31:24.669Z,50.22
2022-12-09T21:33:53.070Z,45.78
2022-12-09T21:36:23.443Z,48.08
2022-12-09T21:38:51.107Z,51.15
2022-12-09T21:41:20.694Z,48.00
2022-12-09T21:43:48.131Z,46.45
2022-12-09T21:46:19.122Z,50.13
2022-12-09T21:48:52.067Z,46.15
2022-12-09T21:51:19.873Z,38.38
2022-12-09T21:53:47.346Z,44.97
2022-12-09T21:56:17.177Z,43.08
2022-12-09T21:58:45.904Z,42.10
2022-12-09T22:03:41.883Z,45.20
2022-12-09T22:06:09.342Z,49.30
2022-12-09T22:08:37.014Z,48.28
2022-12-09T22:11:18.140Z,52.05
2022-12-09T22:13:45.046Z,50.85
2022-12-09T22:16:17.613Z,49.47
2022-12-09T22:18:45.293Z,57.45
2022-12-09T22:21:30.533Z,45.72
2022-12-09T22:24:00.654Z,48.00
2022-12-09T22:26:27.951Z,50.25
2022-12-09T22:28:55.501Z,48.03
2022-12-09T22:31:25.709Z,48.08
2022-12-09T22:33:54.317Z,43.88
2022-12-09T22:36:21.533Z,52.17
2022-12-09T22:38:48.818Z,52.78
2022-12-09T22:41:21.324Z,52.20
2022-12-09T22:43:49.070Z,52.17
2022-12-09T22:46:21.220Z,46.53
2022-12-09T22:48:48.485Z,41.42
2022-12-09T22:51:19.582Z,49.22
2022-12-09T22:53:48.244Z,46.30
2022-12-09T22:58:41.531Z,41.72
2022-12-09T23:01:17.027Z,48.45
2022-12-09T23:03:43.885Z,48.60
2022-12-09T23:06:11.198Z,46.90
2022-12-09T23:08:39.706Z,43.00
2022-12-09T23:11:09.151Z,48.45
2022-12-09T23:13:40.741Z,43.83
2022-12-09T23:16:09.140Z,40.30
2022-12-09T23:18:35.908Z,47.00
2022-12-09T23:21:12.034Z,42.70
2022-12-09T23:23:39.712Z,43.03
2022-12-09T23:26:09.141Z,47.15
2022-12-09T23:28:37.331Z,45.17
2022-12-09T23:31:05.720Z,55.63
2022-12-09T23:33:33.991Z,44.15
2022-12-09T23:36:13.139Z,47.13
2022-12-09T23:38:40.424Z,44.35
2022-12-09T23:41:07.450Z,45.70
2022-12-09T23:43:36.496Z,43.35
2022-12-09T23:46:14.916Z,52.42
2022-12-09T23:48:42.892Z,40.70
2022-12-09T23:51:19.113Z,43.95
2022-12-09T23:53:47.011Z,46.55
2022-12-09T23:56:15.588Z,46.47
2022-12-09T23:58:42.848Z,51.45
